Airport View

Enter AWOS ICAO identifier for current METAR.

ex. KFNL

KCNO 191853Z 27006KT 5SM HZ FEW019 25/15 A2999 RMK AO2 SLP151 T02500150

19 Jun 2019 19:41

Phone: 909-393-5823

Other Area AWOS: KAJO - KONT - KRAL - KPOC

TAF KONT 191736Z 1918/2024 VRB04KT 3SM HZ SCT012 FM192000 25012KT P6SM FEW100 FM200600 25005KT P6SM SCT015 FM200900 VRB04KT P6SM OVC010 FM201800 VRB03KT 5SM HZ SCT012 FM202000 25012KT P6SM SKC